Rhapsody Of The Seas — C6UA2 — position and weather

sailwx.info

Track history (hours):
 
Tides and Currents Weather Stations Pressure Air Temp Water Temp Dewpoint Dewpoint Depression Visibility Wind Speed Wind Dir Waves Ship Positions

Rhapsody Of The Seas

Last reported at 2017-Jun-17 20:02 UTC. Time now 2017-Jun-22 16:38 UTC.
Position N 44°39' E 013°33'.

Type: Passenger vessel. MMSI: 311805000.

Date/timePositionNaut miles runAvg speedWind from/ knotsBaromVisibWave heightAir tempDewpointWater temp
2017-Jun-17 20:02N 44°39' E 013°33'121.4
2017-Jun-17 20:00N 44°40' E 013°32'1121.5
2017-Jun-17 19:30N 44°49' E 013°24'1121.2
2017-Jun-17 19:00N 44°57' E 013°14'1020.9
2017-Jun-17 18:30N 45°04' E 013°04'1020.9
2017-Jun-17 18:00N 45°11' E 012°52'1120.8
2017-Jun-17 17:30N 45°17' E 012°40'1019.4
2017-Jun-17 17:00N 45°23' E 012°30'511.0
2017-Jun-17 16:31N 45°26' E 012°23'3 5.3
2017-Jun-17 16:00N 45°26' E 012°19'1 1.3
2017-Jun-17 15:26N 45°26' E 012°19'0 0.0
2017-Jun-17 14:56N 45°26' E 012°19'0 0.0
2017-Jun-17 14:29N 45°26' E 012°19'0 0.0
2017-Jun-17 13:26N 45°26' E 012°19'0 0.0
2017-Jun-17 12:59N 45°26' E 012°19'0 0.0
2017-Jun-17 12:20N 45°26' E 012°19'0 0.0
2017-Jun-17 11:56N 45°26' E 012°19'0 0.0
2017-Jun-17 11:29N 45°26' E 012°19'0 0.0
2017-Jun-17 10:59N 45°26' E 012°19'0 0.0
2017-Jun-17 10:26N 45°26' E 012°19'0 0.0
2017-Jun-17 09:59N 45°26' E 012°19'0 0.0
2017-Jun-17 09:29N 45°26' E 012°19'0 0.0
2017-Jun-17 08:59N 45°26' E 012°19'0 0.0
2017-Jun-17 08:29N 45°26' E 012°19'0 0.0
2017-Jun-17 07:56N 45°26' E 012°19'0 0.0
2017-Jun-17 07:29N 45°26' E 012°19'0 0.0
2017-Jun-17 06:59N 45°26' E 012°19'0 0.0
2017-Jun-17 06:29N 45°26' E 012°19'0 0.0
2017-Jun-17 05:59N 45°26' E 012°19'0 0.0
2017-Jun-17 05:29N 45°26' E 012°19'0 0.0
2017-Jun-17 04:56N 45°26' E 012°19'0 0.0
2017-Jun-17 04:30N 45°26' E 012°19'1 2.5
2017-Jun-17 03:58N 45°26' E 012°20'2 5.0
2017-Jun-17 03:31N 45°26' E 012°24'611.4
2017-Jun-17 03:00N 45°23' E 012°31'816.5
2017-Jun-17 02:30N 45°18' E 012°39'816.2
2017-Jun-17 02:00N 45°12' E 012°48'816.3
2017-Jun-17 01:31N 45°08' E 012°58'816.4
2017-Jun-17 01:00N 45°04' E 013°08'816.3
2017-Jun-17 00:30N 44°59' E 013°17'815.3
2017-Jun-17 00:00N 44°53' E 013°24'816.0
2017-Jun-16 23:30N 44°46' E 013°30'816.2
2017-Jun-16 23:00N 44°40' E 013°36'816.3
2017-Jun-16 22:31N 44°33' E 013°43'816.3
2017-Jun-16 22:00N 44°26' E 013°49'816.3
2017-Jun-16 21:30N 44°19' E 013°56'816.2
2017-Jun-16 21:00N 44°13' E 014°02'53612.7
2017-Jun-15 02:43N 37°03' E 021°03'15514.7
2017-Jun-14 16:06N 36°55' E 024°18'217.6
2017-Jun-14 15:58N 36°57' E 024°20'3517.8
2017-Jun-14 14:00N 37°16' E 024°57'918.0
2017-Jun-14 13:30N 37°21' E 025°06'817.1
2017-Jun-14 13:00N 37°27' E 025°13'5 9.9
2017-Jun-14 12:30N 37°27' E 025°19'0 0.2
2017-Jun-14 11:59N 37°27' E 025°19'0 0.0
2017-Jun-14 11:29N 37°27' E 025°19'0 0.0
2017-Jun-14 10:56N 37°27' E 025°19'0 0.1
2017-Jun-14 10:29N 37°27' E 025°19'0 0.0
2017-Jun-14 09:59N 37°27' E 025°19'0 0.0
2017-Jun-14 08:41N 37°27' E 025°19'0 0.0
2017-Jun-14 08:23N 37°27' E 025°19'0 0.0
2017-Jun-14 07:59N 37°27' E 025°19'0 0.0
2017-Jun-14 07:26N 37°27' E 025°19'0 0.0
2017-Jun-14 06:59N 37°27' E 025°19'0 0.0
2017-Jun-14 06:26N 37°27' E 025°19'0 0.0
2017-Jun-14 05:59N 37°27' E 025°19'0 0.0
2017-Jun-14 05:29N 37°27' E 025°19'0 0.1
2017-Jun-14 04:50N 37°27' E 025°19'0 0.1
2017-Jun-14 04:29N 37°27' E 025°19'0 0.0
2017-Jun-14 03:59N 37°27' E 025°19'0 0.0
2017-Jun-14 03:31N 37°27' E 025°19'3 5.4
2017-Jun-14 03:01N 37°28' E 025°16'4 7.2
2017-Jun-14 02:31N 37°29' E 025°12'5 8.6
2017-Jun-14 01:59N 37°30' E 025°06'4 8.6
2017-Jun-14 01:30N 37°32' E 025°01'4 8.5
2017-Jun-14 01:01N 37°33' E 024°56'5 9.1
2017-Jun-14 00:31N 37°33' E 024°50'5311.0
2017-Jun-13 19:45N 37°39' E 023°44'312.9
2017-Jun-13 19:30N 37°41' E 023°42'510.7
2017-Jun-13 19:00N 37°46' E 023°39'510.6
2017-Jun-13 18:30N 37°51' E 023°36'5 9.9
2017-Jun-13 18:00N 37°56' E 023°37'1 2.8
2017-Jun-13 17:30N 37°56' E 023°38'0 0.0
2017-Jun-13 17:00N 37°56' E 023°38'0 0.0
2017-Jun-13 16:30N 37°56' E 023°38'0 0.0
2017-Jun-13 16:00N 37°56' E 023°38'0 0.0
2017-Jun-13 15:30N 37°56' E 023°38'0 0.0
2017-Jun-13 15:00N 37°56' E 023°38'0 0.0
2017-Jun-13 14:00N 37°56' E 023°38'0 0.0
2017-Jun-13 13:30N 37°56' E 023°38'0 0.0
2017-Jun-13 13:00N 37°56' E 023°38'0 0.0
2017-Jun-13 12:30N 37°56' E 023°38'0 0.0
2017-Jun-13 12:00N 37°56' E 023°38'0 0.0
2017-Jun-13 11:30N 37°56' E 023°38'0 0.0
2017-Jun-13 11:00N 37°56' E 023°38'0 0.0
2017-Jun-13 10:30N 37°56' E 023°38'0 0.0
2017-Jun-13 10:00N 37°56' E 023°38'0 0.0
2017-Jun-13 09:30N 37°56' E 023°38'0 0.0
2017-Jun-13 09:00N 37°56' E 023°38'0 0.0
2017-Jun-13 08:30N 37°56' E 023°38'2 3.1
2017-Jun-13 08:00N 37°55' E 023°36'4 7.8
2017-Jun-13 07:31N 37°52' E 023°38'917.9
2017-Jun-13 07:01N 37°44' E 023°43'817.0
2017-Jun-13 06:31N 37°36' E 023°46'917.0
2017-Jun-13 06:00N 37°27' E 023°46'  
2017-Jun-10 21:33N 44°02' E 014°07'2421.4
2017-Jun-10 20:25N 44°22' E 013°48'921.4
2017-Jun-10 20:00N 44°29' E 013°41'1121.2
2017-Jun-10 19:30N 44°38' E 013°32'1121.2
2017-Jun-10 19:00N 44°46' E 013°24'1121.2
2017-Jun-10 18:31N 44°55' E 013°15'1020.6
2017-Jun-10 18:00N 45°03' E 013°05'1020.4
2017-Jun-10 17:31N 45°10' E 012°55'1020.1
2017-Jun-10 17:00N 45°16' E 012°44'1019.1
2017-Jun-10 16:31N 45°22' E 012°33'714.0
2017-Jun-10 16:00N 45°26' E 012°25'3 5.5
2017-Jun-10 15:30N 45°26' E 012°21'2 3.1
2017-Jun-10 15:01N 45°26' E 012°19'0 0.0
2017-Jun-10 14:00N 45°26' E 012°19'0 0.0
2017-Jun-10 13:30N 45°26' E 012°19'0 0.0
2017-Jun-10 13:00N 45°26' E 012°19'0 0.0
2017-Jun-10 12:30N 45°26' E 012°19'0 0.0
2017-Jun-10 12:00N 45°26' E 012°19'0 0.0
2017-Jun-10 11:30N 45°26' E 012°19'0 0.0
2017-Jun-10 11:00N 45°26' E 012°19'0 0.0
2017-Jun-10 10:30N 45°26' E 012°19'0 0.0
2017-Jun-10 10:00N 45°26' E 012°19'0 0.0
2017-Jun-10 09:30N 45°26' E 012°19'0 0.0
2017-Jun-10 09:00N 45°26' E 012°19'0 0.0
2017-Jun-10 08:27N 45°26' E 012°19'0 0.0
2017-Jun-10 08:00N 45°26' E 012°19'0 0.0
2017-Jun-10 07:30N 45°26' E 012°19'0 0.0
2017-Jun-10 07:00N 45°26' E 012°19'0 0.0
2017-Jun-10 06:27N 45°26' E 012°19'0 0.0
2017-Jun-10 06:00N 45°26' E 012°19'0 0.0
2017-Jun-10 05:30N 45°26' E 012°19'0 0.0
2017-Jun-10 05:00N 45°26' E 012°19'0 0.0
2017-Jun-10 04:30N 45°26' E 012°19'1 2.3
2017-Jun-10 04:00N 45°26' E 012°20'3 5.5
2017-Jun-10 03:30N 45°26' E 012°24'611.1
2017-Jun-10 03:00N 45°23' E 012°31'815.7
2017-Jun-10 02:30N 45°18' E 012°39'815.9
2017-Jun-10 02:00N 45°13' E 012°48'917.5
2017-Jun-10 01:30N 45°08' E 012°58'917.2
2017-Jun-10 01:00N 45°03' E 013°08'816.9
2017-Jun-10 00:30N 44°59' E 013°18'815.7
2017-Jun-10 00:00N 44°53' E 013°25'816.0
2017-Jun-09 23:30N 44°46' E 013°31'816.4
2017-Jun-09 23:00N 44°39' E 013°37'816.2
2017-Jun-09 22:30N 44°32' E 013°44'816.3
2017-Jun-09 22:00N 44°26' E 013°50'816.3
2017-Jun-09 21:30N 44°19' E 013°57'816.3
2017-Jun-09 21:00N 44°12' E 014°02'816.3
2017-Jun-09 20:30N 44°05' E 014°09'816.3
2017-Jun-09 20:00N 43°59' E 014°16'2716.3
2017-Jun-09 18:22N 43°38' E 014°40'616.3
2017-Jun-09 17:59N 43°33' E 014°45'  
Track history (hours):
 
Tides and Currents Weather Stations Pressure Air Temp Water Temp Dewpoint Dewpoint Depression Visibility Wind Speed Wind Dir Waves Ship Positions

Rhapsody Of The Seas

Last reported at 2017-Jun-17 20:02 UTC. Time now 2017-Jun-22 16:38 UTC.
Position N 44°39' E 013°33'.

Type: Passenger vessel. MMSI: 311805000.

Date/timePositionNaut miles runAvg speedWind from/ knotsBaromVisibWave heightAir tempDewpointWater temp
2017-Jun-17 20:02N 44°39' E 013°33'121.4
2017-Jun-17 20:00N 44°40' E 013°32'1121.5
2017-Jun-17 19:30N 44°49' E 013°24'1121.2
2017-Jun-17 19:00N 44°57' E 013°14'1020.9
2017-Jun-17 18:30N 45°04' E 013°04'1020.9
2017-Jun-17 18:00N 45°11' E 012°52'1120.8
2017-Jun-17 17:30N 45°17' E 012°40'1019.4
2017-Jun-17 17:00N 45°23' E 012°30'511.0
2017-Jun-17 16:31N 45°26' E 012°23'3 5.3
2017-Jun-17 16:00N 45°26' E 012°19'1 1.3
2017-Jun-17 15:26N 45°26' E 012°19'0 0.0
2017-Jun-17 14:56N 45°26' E 012°19'0 0.0
2017-Jun-17 14:29N 45°26' E 012°19'0 0.0
2017-Jun-17 13:26N 45°26' E 012°19'0 0.0
2017-Jun-17 12:59N 45°26' E 012°19'0 0.0
2017-Jun-17 12:20N 45°26' E 012°19'0 0.0
2017-Jun-17 11:56N 45°26' E 012°19'0 0.0
2017-Jun-17 11:29N 45°26' E 012°19'0 0.0
2017-Jun-17 10:59N 45°26' E 012°19'0 0.0
2017-Jun-17 10:26N 45°26' E 012°19'0 0.0
2017-Jun-17 09:59N 45°26' E 012°19'0 0.0
2017-Jun-17 09:29N 45°26' E 012°19'0 0.0
2017-Jun-17 08:59N 45°26' E 012°19'0 0.0
2017-Jun-17 08:29N 45°26' E 012°19'0 0.0
2017-Jun-17 07:56N 45°26' E 012°19'0 0.0
2017-Jun-17 07:29N 45°26' E 012°19'0 0.0
2017-Jun-17 06:59N 45°26' E 012°19'0 0.0
2017-Jun-17 06:29N 45°26' E 012°19'0 0.0
2017-Jun-17 05:59N 45°26' E 012°19'0 0.0
2017-Jun-17 05:29N 45°26' E 012°19'0 0.0
2017-Jun-17 04:56N 45°26' E 012°19'0 0.0
2017-Jun-17 04:30N 45°26' E 012°19'1 2.5
2017-Jun-17 03:58N 45°26' E 012°20'2 5.0
2017-Jun-17 03:31N 45°26' E 012°24'611.4
2017-Jun-17 03:00N 45°23' E 012°31'816.5
2017-Jun-17 02:30N 45°18' E 012°39'816.2
2017-Jun-17 02:00N 45°12' E 012°48'816.3
2017-Jun-17 01:31N 45°08' E 012°58'816.4
2017-Jun-17 01:00N 45°04' E 013°08'816.3
2017-Jun-17 00:30N 44°59' E 013°17'815.3
2017-Jun-17 00:00N 44°53' E 013°24'816.0
2017-Jun-16 23:30N 44°46' E 013°30'816.2
2017-Jun-16 23:00N 44°40' E 013°36'816.3
2017-Jun-16 22:31N 44°33' E 013°43'816.3
2017-Jun-16 22:00N 44°26' E 013°49'816.3
2017-Jun-16 21:30N 44°19' E 013°56'816.2
2017-Jun-16 21:00N 44°13' E 014°02'53612.7
2017-Jun-15 02:43N 37°03' E 021°03'15514.7
2017-Jun-14 16:06N 36°55' E 024°18'217.6
2017-Jun-14 15:58N 36°57' E 024°20'3517.8
2017-Jun-14 14:00N 37°16' E 024°57'918.0
2017-Jun-14 13:30N 37°21' E 025°06'817.1
2017-Jun-14 13:00N 37°27' E 025°13'5 9.9
2017-Jun-14 12:30N 37°27' E 025°19'0 0.2
2017-Jun-14 11:59N 37°27' E 025°19'0 0.0
2017-Jun-14 11:29N 37°27' E 025°19'0 0.0
2017-Jun-14 10:56N 37°27' E 025°19'0 0.1
2017-Jun-14 10:29N 37°27' E 025°19'0 0.0
2017-Jun-14 09:59N 37°27' E 025°19'0 0.0
2017-Jun-14 08:41N 37°27' E 025°19'0 0.0
2017-Jun-14 08:23N 37°27' E 025°19'0 0.0
2017-Jun-14 07:59N 37°27' E 025°19'0 0.0
2017-Jun-14 07:26N 37°27' E 025°19'0 0.0
2017-Jun-14 06:59N 37°27' E 025°19'0 0.0
2017-Jun-14 06:26N 37°27' E 025°19'0 0.0
2017-Jun-14 05:59N 37°27' E 025°19'0 0.0
2017-Jun-14 05:29N 37°27' E 025°19'0 0.1
2017-Jun-14 04:50N 37°27' E 025°19'0 0.1
2017-Jun-14 04:29N 37°27' E 025°19'0 0.0
2017-Jun-14 03:59N 37°27' E 025°19'0 0.0
2017-Jun-14 03:31N 37°27' E 025°19'3 5.4
2017-Jun-14 03:01N 37°28' E 025°16'4 7.2
2017-Jun-14 02:31N 37°29' E 025°12'5 8.6
2017-Jun-14 01:59N 37°30' E 025°06'4 8.6
2017-Jun-14 01:30N 37°32' E 025°01'4 8.5
2017-Jun-14 01:01N 37°33' E 024°56'5 9.1
2017-Jun-14 00:31N 37°33' E 024°50'5311.0
2017-Jun-13 19:45N 37°39' E 023°44'312.9
2017-Jun-13 19:30N 37°41' E 023°42'510.7
2017-Jun-13 19:00N 37°46' E 023°39'510.6
2017-Jun-13 18:30N 37°51' E 023°36'5 9.9
2017-Jun-13 18:00N 37°56' E 023°37'1 2.8
2017-Jun-13 17:30N 37°56' E 023°38'0 0.0
2017-Jun-13 17:00N 37°56' E 023°38'0 0.0
2017-Jun-13 16:30N 37°56' E 023°38'0 0.0
2017-Jun-13 16:00N 37°56' E 023°38'0 0.0
2017-Jun-13 15:30N 37°56' E 023°38'0 0.0
2017-Jun-13 15:00N 37°56' E 023°38'0 0.0
2017-Jun-13 14:00N 37°56' E 023°38'0 0.0
2017-Jun-13 13:30N 37°56' E 023°38'0 0.0
2017-Jun-13 13:00N 37°56' E 023°38'0 0.0
2017-Jun-13 12:30N 37°56' E 023°38'0 0.0
2017-Jun-13 12:00N 37°56' E 023°38'0 0.0
2017-Jun-13 11:30N 37°56' E 023°38'0 0.0
2017-Jun-13 11:00N 37°56' E 023°38'0 0.0
2017-Jun-13 10:30N 37°56' E 023°38'0 0.0
2017-Jun-13 10:00N 37°56' E 023°38'0 0.0
2017-Jun-13 09:30N 37°56' E 023°38'0 0.0
2017-Jun-13 09:00N 37°56' E 023°38'0 0.0
2017-Jun-13 08:30N 37°56' E 023°38'2 3.1
2017-Jun-13 08:00N 37°55' E 023°36'4 7.8
2017-Jun-13 07:31N 37°52' E 023°38'917.9
2017-Jun-13 07:01N 37°44' E 023°43'817.0
2017-Jun-13 06:31N 37°36' E 023°46'917.0
2017-Jun-13 06:00N 37°27' E 023°46'  
2017-Jun-10 21:33N 44°02' E 014°07'2421.4
2017-Jun-10 20:25N 44°22' E 013°48'921.4
2017-Jun-10 20:00N 44°29' E 013°41'1121.2
2017-Jun-10 19:30N 44°38' E 013°32'1121.2
2017-Jun-10 19:00N 44°46' E 013°24'1121.2
2017-Jun-10 18:31N 44°55' E 013°15'1020.6
2017-Jun-10 18:00N 45°03' E 013°05'1020.4
2017-Jun-10 17:31N 45°10' E 012°55'1020.1
2017-Jun-10 17:00N 45°16' E 012°44'1019.1
2017-Jun-10 16:31N 45°22' E 012°33'714.0
2017-Jun-10 16:00N 45°26' E 012°25'3 5.5
2017-Jun-10 15:30N 45°26' E 012°21'2 3.1
2017-Jun-10 15:01N 45°26' E 012°19'0 0.0
2017-Jun-10 14:00N 45°26' E 012°19'0 0.0
2017-Jun-10 13:30N 45°26' E 012°19'0 0.0
2017-Jun-10 13:00N 45°26' E 012°19'0 0.0
2017-Jun-10 12:30N 45°26' E 012°19'0 0.0
2017-Jun-10 12:00N 45°26' E 012°19'0 0.0
2017-Jun-10 11:30N 45°26' E 012°19'0 0.0
2017-Jun-10 11:00N 45°26' E 012°19'0 0.0
2017-Jun-10 10:30N 45°26' E 012°19'0 0.0
2017-Jun-10 10:00N 45°26' E 012°19'0 0.0
2017-Jun-10 09:30N 45°26' E 012°19'0 0.0
2017-Jun-10 09:00N 45°26' E 012°19'0 0.0
2017-Jun-10 08:27N 45°26' E 012°19'0 0.0
2017-Jun-10 08:00N 45°26' E 012°19'0 0.0
2017-Jun-10 07:30N 45°26' E 012°19'0 0.0
2017-Jun-10 07:00N 45°26' E 012°19'0 0.0
2017-Jun-10 06:27N 45°26' E 012°19'0 0.0
2017-Jun-10 06:00N 45°26' E 012°19'0 0.0
2017-Jun-10 05:30N 45°26' E 012°19'0 0.0
2017-Jun-10 05:00N 45°26' E 012°19'0 0.0
2017-Jun-10 04:30N 45°26' E 012°19'1 2.3
2017-Jun-10 04:00N 45°26' E 012°20'3 5.5
2017-Jun-10 03:30N 45°26' E 012°24'611.1
2017-Jun-10 03:00N 45°23' E 012°31'815.7
2017-Jun-10 02:30N 45°18' E 012°39'815.9
2017-Jun-10 02:00N 45°13' E 012°48'917.5
2017-Jun-10 01:30N 45°08' E 012°58'917.2
2017-Jun-10 01:00N 45°03' E 013°08'816.9
2017-Jun-10 00:30N 44°59' E 013°18'815.7
2017-Jun-10 00:00N 44°53' E 013°25'816.0
2017-Jun-09 23:30N 44°46' E 013°31'816.4
2017-Jun-09 23:00N 44°39' E 013°37'816.2
2017-Jun-09 22:30N 44°32' E 013°44'816.3
2017-Jun-09 22:00N 44°26' E 013°50'816.3
2017-Jun-09 21:30N 44°19' E 013°57'816.3
2017-Jun-09 21:00N 44°12' E 014°02'816.3
2017-Jun-09 20:30N 44°05' E 014°09'816.3
2017-Jun-09 20:00N 43°59' E 014°16'2716.3
2017-Jun-09 18:22N 43°38' E 014°40'616.3
2017-Jun-09 17:59N 43°33' E 014°45'  

Dump ship's entire track history